Time;durP1;ratioP1;P1;durP2;ratioP2;P2;SDS_P1;SDS_P2;PMS_P1;PMS_P2;Temp;Humidity;BMP_temperature;BMP_pressure;BME280_temperature;BME280_humidity;BME280_pressure;Samples;Min_cycle;Max_cycle;Signal;HPM_P1;HPM_P2
2023/12/03 00:04:45;;;;;;;66.63;28.10;;;;;;;1.49;100.00;101764.13;10428638;28;20049;-60
2023/12/03 00:10:07;;;;;;;75.38;29.77;;;;;;;1.55;100.00;101771.06;10417596;28;20132;-61
2023/12/03 00:15:28;;;;;;;78.13;28.00;;;;;;;1.58;100.00;101759.22;10431427;28;20064;-61
2023/12/03 00:20:50;;;;;;;62.58;27.05;;;;;;;1.66;100.00;101767.06;10422416;28;20041;-61
2023/12/03 00:26:12;;;;;;;60.88;26.70;;;;;;;1.71;100.00;101770.53;10416476;28;20045;-61
2023/12/03 00:31:34;;;;;;;67.80;28.27;;;;;;;1.77;100.00;101768.13;10427336;28;20037;-61
2023/12/03 00:36:56;;;;;;;54.67;24.65;;;;;;;1.83;100.00;101773.38;10427233;28;20063;-61
2023/12/03 00:42:17;;;;;;;57.92;25.05;;;;;;;1.86;100.00;101784.50;10431961;28;20063;-61
2023/12/03 00:47:42;;;;;;;61.83;24.45;;;;;;;1.89;100.00;101783.69;10443159;28;20532;-61
2023/12/03 00:53:04;;;;;;;59.75;24.88;;;;;;;1.93;100.00;101790.56;10416326;28;20055;-61
2023/12/03 00:58:26;;;;;;;56.90;24.92;;;;;;;1.97;100.00;101787.25;10419564;28;20055;-61
2023/12/03 01:03:47;;;;;;;57.80;25.23;;;;;;;1.99;100.00;101798.38;10428409;28;20152;-61
2023/12/03 01:09:09;;;;;;;53.58;22.95;;;;;;;2.03;100.00;101797.59;10420528;28;20095;-61
2023/12/03 01:14:31;;;;;;;55.47;23.77;;;;;;;1.99;100.00;101806.88;10412383;28;20060;-61
2023/12/03 01:19:53;;;;;;;56.72;24.05;;;;;;;2.02;100.00;101813.72;10423678;28;20045;-61
2023/12/03 01:25:15;;;;;;;57.67;23.05;;;;;;;2.06;100.00;101823.16;10428769;28;20083;-61
2023/12/03 01:30:36;;;;;;;50.08;22.25;;;;;;;2.08;100.00;101833.41;10420118;28;20048;-61
2023/12/03 01:35:58;;;;;;;62.97;24.13;;;;;;;2.09;100.00;101825.78;10427830;28;20091;-61
2023/12/03 01:41:20;;;;;;;56.25;22.77;;;;;;;2.06;100.00;101838.47;10419417;28;20055;-61
2023/12/03 01:46:41;;;;;;;52.88;23.25;;;;;;;2.09;100.00;101858.13;10430704;28;20409;-61
2023/12/03 01:52:03;;;;;;;56.42;23.13;;;;;;;2.10;100.00;101857.28;10431188;28;20138;-61
2023/12/03 01:57:26;;;;;;;58.33;23.40;;;;;;;2.05;100.00;101862.28;10436120;28;20059;-61
2023/12/03 02:02:48;;;;;;;62.58;23.10;;;;;;;2.08;100.00;101857.25;10432792;28;20080;-61
2023/12/03 02:08:10;;;;;;;51.55;21.30;;;;;;;2.09;100.00;101858.13;10436692;28;20037;-61
2023/12/03 02:13:37;;;;;;;56.90;22.20;;;;;;;2.05;100.00;101867.41;10432383;28;20049;-61
2023/12/03 02:18:59;;;;;;;59.38;21.17;;;;;;;2.09;100.00;101869.16;10439518;28;20362;-61
2023/12/03 02:24:21;;;;;;;51.38;22.08;;;;;;;2.07;100.00;101869.97;10427284;28;20053;-61
2023/12/03 02:29:47;;;;;;;51.78;21.70;;;;;;;2.07;100.00;101875.91;10431138;28;20045;-61
2023/12/03 02:35:09;;;;;;;55.50;22.30;;;;;;;2.09;100.00;101878.53;10435230;28;21961;-61
2023/12/03 02:40:34;;;;;;;52.42;21.25;;;;;;;2.09;100.00;101876.81;10438614;28;20040;-60
2023/12/03 02:45:55;;;;;;;38.60;15.00;;;;;;;2.04;100.00;101879.28;10446409;28;20139;-61
2023/12/03 02:51:17;;;;;;;58.22;23.08;;;;;;;1.98;100.00;101868.06;10432072;28;20055;-61
2023/12/03 02:56:39;;;;;;;56.13;22.15;;;;;;;2.00;100.00;101884.28;10444425;28;20052;-61
2023/12/03 03:02:00;;;;;;;58.22;22.77;;;;;;;1.96;100.00;101888.47;10435626;28;20044;-61
2023/12/03 03:07:22;;;;;;;66.60;24.67;;;;;;;1.94;100.00;101887.56;10430602;28;20533;-60
2023/12/03 03:12:44;;;;;;;71.47;24.95;;;;;;;1.95;100.00;101886.75;10444577;28;20055;-60
2023/12/03 03:18:05;;;;;;;77.40;25.25;;;;;;;1.96;100.00;101882.47;10425996;28;20060;-60
2023/12/03 03:23:27;;;;;;;66.75;24.38;;;;;;;1.96;100.00;101892.69;10426485;28;20067;-60
2023/12/03 03:28:49;;;;;;;67.38;23.95;;;;;;;1.99;100.00;101893.66;10432562;28;20052;-60
2023/12/03 03:34:10;;;;;;;85.95;24.77;;;;;;;2.00;100.00;101897.03;10427405;28;20109;-60
2023/12/03 03:39:32;;;;;;;73.93;24.52;;;;;;;1.96;100.00;101897.78;10436295;28;20055;-60
2023/12/03 03:44:54;;;;;;;83.85;24.08;;;;;;;1.94;100.00;101896.94;10434079;28;20502;-60
2023/12/03 03:50:15;;;;;;;86.40;25.08;;;;;;;1.98;100.00;101896.13;10445095;28;20047;-60
2023/12/03 03:55:37;;;;;;;77.10;24.20;;;;;;;2.01;100.00;101903.88;10433601;28;20135;-60
2023/12/03 04:00:58;;;;;;;76.85;24.80;;;;;;;1.97;100.00;101904.63;10421076;28;20055;-60
2023/12/03 04:06:20;;;;;;;72.45;23.35;;;;;;;1.99;100.00;101906.41;10428086;28;20727;-60
2023/12/03 04:11:43;;;;;;;73.97;23.83;;;;;;;2.05;100.00;101911.63;10424132;28;20049;-60
2023/12/03 04:17:05;;;;;;;50.88;19.67;;;;;;;2.07;100.00;101921.84;10444706;28;20045;-60
2023/12/03 04:22:27;;;;;;;57.08;21.40;;;;;;;2.11;100.00;101928.75;10431895;28;20056;-60
2023/12/03 04:27:48;;;;;;;58.05;20.92;;;;;;;2.12;100.00;101924.53;10429053;28;20416;-60
2023/12/03 04:33:10;;;;;;;45.78;17.98;;;;;;;2.07;100.00;101926.97;10426702;28;20130;-60
2023/12/03 04:38:32;;;;;;;51.00;18.38;;;;;;;2.13;100.00;101932.22;10438253;28;20041;-60
2023/12/03 04:43:54;;;;;;;47.55;19.20;;;;;;;2.18;100.00;101934.88;10429840;28;20044;-60
2023/12/03 04:49:16;;;;;;;46.88;18.67;;;;;;;2.21;100.00;101940.91;10427571;28;20044;-60
2023/12/03 04:54:38;;;;;;;42.97;17.70;;;;;;;2.21;100.00;101946.00;10432914;28;20067;-60
2023/12/03 04:59:59;;;;;;;40.35;17.35;;;;;;;2.24;100.00;101948.63;10430155;28;20041;-59
2023/12/03 05:05:21;;;;;;;39.67;16.10;;;;;;;2.25;100.00;101960.56;10411782;28;20052;-59
2023/12/03 05:10:42;;;;;;;35.53;15.43;;;;;;;2.23;100.00;101969.88;10412789;28;20045;-59
2023/12/03 05:16:04;;;;;;;37.85;15.27;;;;;;;2.28;100.00;101968.28;10441187;28;20072;-60
2023/12/03 05:21:26;;;;;;;30.08;14.35;;;;;;;2.29;100.00;101975.09;10442519;28;20079;-59
2023/12/03 05:26:48;;;;;;;28.35;12.90;;;;;;;2.32;100.00;101982.84;10423235;28;20057;-60
2023/12/03 05:32:10;;;;;;;27.75;13.57;;;;;;;2.32;100.00;101984.53;10425957;28;20044;-59
2023/12/03 05:37:32;;;;;;;34.05;15.32;;;;;;;2.30;100.00;101992.16;10411959;28;20049;-59
2023/12/03 05:42:53;;;;;;;36.22;15.60;;;;;;;2.31;100.00;101993.88;10423616;28;20412;-59
2023/12/03 05:48:15;;;;;;;40.10;14.80;;;;;;;2.29;100.00;101999.81;10425591;28;20049;-59
2023/12/03 05:53:37;;;;;;;34.10;14.68;;;;;;;2.30;100.00;102016.81;10432085;28;20067;-59
2023/12/03 05:58:58;;;;;;;30.08;13.30;;;;;;;2.33;100.00;102012.66;10429782;28;20033;-59
2023/12/03 06:04:20;;;;;;;24.83;12.60;;;;;;;2.32;100.00;102010.94;10424990;28;20131;-59
2023/12/03 06:09:42;;;;;;;29.88;13.82;;;;;;;2.32;100.00;102017.72;10418696;28;20045;-59
2023/12/03 06:15:04;;;;;;;32.97;15.45;;;;;;;2.34;100.00;102033.94;10440212;28;20056;-59
2023/12/03 06:20:26;;;;;;;35.67;15.90;;;;;;;2.32;100.00;102021.16;10442409;28;20041;-59
2023/12/03 06:25:47;;;;;;;34.53;16.33;;;;;;;2.32;100.00;102016.03;10446242;28;20455;-59
2023/12/03 06:31:09;;;;;;;40.63;16.85;;;;;;;2.37;100.00;102024.66;10431546;28;20048;-59
2023/12/03 06:36:31;;;;;;;40.47;16.42;;;;;;;2.41;100.00;102016.25;10433837;28;20045;-59
2023/12/03 06:41:53;;;;;;;38.28;16.77;;;;;;;2.40;100.00;102024.72;10434082;28;20425;-60
2023/12/03 06:47:14;;;;;;;38.95;16.85;;;;;;;2.38;100.00;102026.38;10446451;28;20063;-59
2023/12/03 06:52:36;;;;;;;34.92;16.35;;;;;;;2.40;100.00;102031.53;10433481;28;20090;-59
2023/12/03 06:57:59;;;;;;;35.75;16.77;;;;;;;2.39;100.00;102030.66;10434423;28;20053;-59
2023/12/03 07:03:20;;;;;;;34.78;15.73;;;;;;;2.33;100.00;102038.19;10430469;28;20057;-59
2023/12/03 07:08:44;;;;;;;37.30;15.63;;;;;;;2.36;100.00;102045.94;10431849;28;20421;-59
2023/12/03 07:14:06;;;;;;;36.40;15.68;;;;;;;2.38;100.00;102048.50;10431668;28;20073;-60
2023/12/03 07:19:31;;;;;;;36.33;16.27;;;;;;;2.41;100.00;102059.66;10441738;28;20041;-60
2023/12/03 07:24:53;;;;;;;36.58;17.13;;;;;;;2.37;100.00;102068.06;10429900;28;20421;-60
2023/12/03 07:30:15;;;;;;;37.65;17.10;;;;;;;2.39;100.00;102079.19;10426753;28;20119;-59
2023/12/03 07:35:37;;;;;;;39.08;16.95;;;;;;;2.37;100.00;102085.94;10426215;28;20110;-60
2023/12/03 07:40:59;;;;;;;40.47;18.15;;;;;;;2.41;100.00;102086.88;10432875;28;20192;-59
2023/12/03 07:46:21;;;;;;;42.88;17.77;;;;;;;2.38;100.00;102082.56;10426089;28;20044;-59
2023/12/03 07:51:46;;;;;;;40.67;18.98;;;;;;;2.38;100.00;102084.25;10433182;28;20040;-60
2023/12/03 07:57:08;;;;;;;40.63;17.38;;;;;;;2.30;100.00;102078.97;10430442;28;20057;-60
2023/12/03 08:02:29;;;;;;;41.45;18.45;;;;;;;2.32;100.00;102091.78;10419446;28;20143;-60
2023/12/03 08:07:51;;;;;;;45.40;19.52;;;;;;;2.22;100.00;102085.56;10447758;28;20049;-60
2023/12/03 08:13:12;;;;;;;45.95;18.83;;;;;;;2.21;100.00;102098.31;10415504;28;20111;-60
2023/12/03 08:18:34;;;;;;;42.60;19.05;;;;;;;2.27;100.00;102094.19;10415389;28;20045;-60
2023/12/03 08:23:58;;;;;;;48.47;18.80;;;;;;;2.28;100.00;102105.28;10410884;28;20048;-60
2023/12/03 08:29:20;;;;;;;44.55;19.15;;;;;;;2.25;100.00;102098.44;10409109;28;20057;-60
2023/12/03 08:34:41;;;;;;;42.53;19.58;;;;;;;2.18;100.00;102106.75;10410796;28;20048;-59
2023/12/03 08:40:04;;;;;;;45.13;19.23;;;;;;;2.16;100.00;102120.31;10425756;28;20052;-60
2023/12/03 08:45:26;;;;;;;43.75;19.00;;;;;;;2.14;100.00;102112.63;10426178;28;20450;-60
2023/12/03 08:50:48;;;;;;;47.65;18.77;;;;;;;2.10;100.00;102113.38;10429575;28;20045;-60
2023/12/03 08:56:12;;;;;;;41.22;17.65;;;;;;;2.09;100.00;102115.91;10429307;28;20052;-60
2023/12/03 09:01:33;;;;;;;39.40;16.65;;;;;;;2.08;100.00;102122.69;10420935;28;20053;-60
2023/12/03 09:06:55;;;;;;;36.47;16.80;;;;;;;2.11;100.00;102122.75;10423086;28;20077;-60
2023/12/03 09:12:17;;;;;;;32.58;14.90;;;;;;;2.14;100.00;102130.50;10425881;28;20049;-60
2023/12/03 09:17:39;;;;;;;33.75;15.75;;;;;;;2.16;100.00;102141.63;10423708;28;20059;-60
2023/12/03 09:23:01;;;;;;;34.08;14.20;;;;;;;2.22;100.00;102141.75;10417000;28;20049;-60
2023/12/03 09:28:23;;;;;;;30.88;14.40;;;;;;;2.32;100.00;102137.72;10430264;28;20428;-61
2023/12/03 09:33:44;;;;;;;24.80;12.40;;;;;;;2.29;100.00;102142.78;10403423;28;20055;-61
2023/12/03 09:39:06;;;;;;;23.58;12.15;;;;;;;2.27;100.00;102145.25;10443055;28;20049;-61
2023/12/03 09:44:48;;;;;;;26.10;12.93;;;;;;;2.30;100.00;102147.91;10442269;28;20053;-61
2023/12/03 09:50:09;;;;;;;22.08;11.90;;;;;;;2.35;100.00;102143.78;10425520;28;20131;-60
2023/12/03 09:55:37;;;;;;;25.53;12.47;;;;;;;2.38;100.00;102148.94;10441585;28;20110;-60
2023/12/03 10:01:00;;;;;;;27.15;12.38;;;;;;;2.39;100.00;102140.47;10445812;28;20474;-61
2023/12/03 10:06:24;;;;;;;29.85;13.23;;;;;;;2.31;100.00;102149.63;10434409;28;20500;-60
2023/12/03 10:11:53;;;;;;;36.10;15.25;;;;;;;2.32;100.00;102159.03;10450605;28;20049;-60
2023/12/03 10:17:21;;;;;;;33.88;16.08;;;;;;;2.38;100.00;102159.16;10438755;28;20053;-61
2023/12/03 10:22:43;;;;;;;37.70;16.10;;;;;;;2.38;100.00;102158.31;10439856;28;20589;-60
2023/12/03 10:28:07;;;;;;;33.65;16.48;;;;;;;2.33;100.00;102155.63;10446282;28;20055;-61
2023/12/03 10:33:29;;;;;;;37.10;16.77;;;;;;;2.41;100.00;102149.03;10433810;28;20041;-61
2023/12/03 10:38:51;;;;;;;39.45;17.20;;;;;;;2.41;100.00;102155.81;10424908;28;20517;-61
2023/12/03 10:44:17;;;;;;;36.60;17.45;;;;;;;2.41;100.00;102156.69;10434572;28;20401;-60
2023/12/03 10:49:40;;;;;;;37.67;17.35;;;;;;;2.43;100.00;102159.28;10428890;28;20053;-61
2023/12/03 10:55:06;;;;;;;38.30;16.52;;;;;;;2.37;100.00;102152.34;10435265;28;20140;-61
2023/12/03 11:00:40;;;;;;;33.60;15.90;;;;;;;2.41;100.00;102156.69;10435152;28;20057;-61
2023/12/03 11:06:04;;;;;;;35.05;15.60;;;;;;;2.41;100.00;102153.28;10433630;28;20056;-61
2023/12/03 11:11:26;;;;;;;32.20;13.88;;;;;;;2.45;100.00;102138.06;10445615;28;20072;-61
2023/12/03 11:17:06;;;;;;;25.27;12.52;;;;;;;2.43;100.00;102144.84;10428905;28;20155;-61
2023/12/03 11:22:36;;;;;;;24.92;11.95;;;;;;;2.47;100.00;102133.84;10435383;28;20052;-62
2023/12/03 11:27:59;;;;;;;27.08;11.85;;;;;;;2.49;100.00;102127.09;10428292;28;20053;-61
2023/12/03 11:33:22;;;;;;;27.17;11.70;;;;;;;2.51;100.00;102124.59;10430000;28;20480;-61
2023/12/03 11:38:46;;;;;;;28.27;12.95;;;;;;;2.63;100.00;102114.66;10430319;28;20064;-61
2023/12/03 11:44:21;;;;;;;28.90;13.27;;;;;;;2.66;100.00;102110.47;10438816;28;20047;-61
2023/12/03 11:49:43;;;;;;;27.25;12.13;;;;;;;2.72;100.00;102108.06;10414383;28;20080;-61
2023/12/03 11:55:05;;;;;;;32.13;13.00;;;;;;;2.71;100.00;102103.75;10430221;28;20056;-61
2023/12/03 12:00:27;;;;;;;33.45;13.13;;;;;;;2.77;100.00;102111.56;10427526;28;20395;-61
2023/12/03 12:05:50;;;;;;;32.55;14.30;;;;;;;2.79;100.00;102099.69;10428620;28;20445;-61
2023/12/03 12:11:12;;;;;;;36.00;14.77;;;;;;;2.83;100.00;102098.94;10421431;28;20057;-61
2023/12/03 12:16:36;;;;;;;36.88;15.73;;;;;;;2.84;100.00;102103.19;10425851;28;20075;-61
2023/12/03 12:21:58;;;;;;;35.78;15.68;;;;;;;2.89;100.00;102098.19;10422970;28;20401;-61
2023/12/03 12:27:20;;;;;;;40.20;17.05;;;;;;;2.86;100.00;102093.88;10423400;28;20056;-61
2023/12/03 12:32:42;;;;;;;45.95;18.23;;;;;;;2.81;100.00;102099.72;10433069;28;20140;-61
2023/12/03 12:38:06;;;;;;;44.72;18.60;;;;;;;2.80;100.00;102096.28;10435282;28;20139;-61
2023/12/03 12:43:28;;;;;;;48.28;18.88;;;;;;;2.86;100.00;102103.22;10443169;28;20045;-62
2023/12/03 12:48:50;;;;;;;42.53;19.13;;;;;;;2.86;100.00;102099.00;10428741;28;20063;-61
2023/12/03 12:54:14;;;;;;;42.08;17.60;;;;;;;2.87;100.00;102108.41;10434535;28;20072;-61
2023/12/03 12:59:37;;;;;;;44.90;19.37;;;;;;;2.88;100.00;102112.66;10435149;28;20048;-61
2023/12/03 13:04:59;;;;;;;46.45;19.35;;;;;;;2.82;100.00;102122.75;10417488;28;20048;-61
2023/12/03 13:10:23;;;;;;;46.65;19.48;;;;;;;2.82;100.00;102109.97;10441577;28;20048;-60
2023/12/03 13:15:44;;;;;;;52.97;20.10;;;;;;;2.82;100.00;102102.31;10429283;28;20103;-61
2023/12/03 13:21:06;;;;;;;45.28;19.40;;;;;;;2.82;100.00;102097.19;10434806;28;20107;-61
2023/12/03 13:26:28;;;;;;;48.45;20.73;;;;;;;2.80;100.00;102106.50;10427987;28;20041;-61
2023/12/03 13:31:50;;;;;;;50.40;20.73;;;;;;;2.81;100.00;102105.69;10438483;28;20051;-61
2023/12/03 13:37:11;;;;;;;50.80;21.25;;;;;;;2.80;100.00;102103.97;10426197;28;20901;-61
2023/12/03 13:42:34;;;;;;;46.10;21.67;;;;;;;2.81;100.00;102103.16;10438386;28;20047;-61
2023/12/03 13:47:56;;;;;;;44.88;20.58;;;;;;;2.77;100.00;102103.03;10427652;28;20457;-61
2023/12/03 13:53:18;;;;;;;48.05;21.30;;;;;;;2.79;100.00;102099.69;10436358;28;20410;-61
2023/12/03 13:58:39;;;;;;;52.05;21.52;;;;;;;2.81;100.00;102095.47;10438010;28;20563;-61
2023/12/03 14:04:01;;;;;;;48.08;21.35;;;;;;;2.76;100.00;102101.31;10437388;28;20741;-61
2023/12/03 14:09:23;;;;;;;48.08;22.58;;;;;;;2.75;100.00;102097.91;10431659;28;20049;-61
2023/12/03 14:14:44;;;;;;;50.13;22.08;;;;;;;2.77;100.00;102106.47;10439228;28;20080;-61
2023/12/03 14:20:07;;;;;;;52.78;22.27;;;;;;;2.80;100.00;102114.19;10431986;28;20044;-61
2023/12/03 14:25:29;;;;;;;49.50;22.88;;;;;;;2.77;100.00;102109.00;10450191;28;20052;-61
2023/12/03 14:30:51;;;;;;;53.05;23.45;;;;;;;2.75;100.00;102110.66;10451427;28;20135;-61
2023/12/03 14:36:13;;;;;;;47.45;22.67;;;;;;;2.78;100.00;102126.06;10429103;28;20057;-61
2023/12/03 14:41:35;;;;;;;45.58;22.58;;;;;;;2.84;100.00;102110.00;10435469;28;20049;-61
2023/12/03 14:46:56;;;;;;;49.15;22.45;;;;;;;2.81;100.00;102110.81;10434321;28;20395;-61
2023/12/03 14:52:18;;;;;;;47.25;23.00;;;;;;;2.87;100.00;102117.75;10439671;28;20049;-61
2023/12/03 14:57:40;;;;;;;44.60;22.08;;;;;;;2.84;99.87;102115.97;10429922;28;20045;-61
2023/12/03 15:03:02;;;;;;;47.75;21.77;;;;;;;2.86;100.00;102123.69;10434055;28;20046;-61
2023/12/03 15:08:24;;;;;;;45.00;22.30;;;;;;;2.88;100.00;102116.91;10435696;28;20077;-61
2023/12/03 15:13:45;;;;;;;52.35;23.83;;;;;;;2.87;100.00;102116.06;10436634;28;20059;-62
2023/12/03 15:19:07;;;;;;;48.42;23.40;;;;;;;2.90;100.00;102111.00;10430641;28;20056;-61
2023/12/03 15:24:29;;;;;;;50.03;24.02;;;;;;;2.89;100.00;102114.38;10431450;28;20110;-61
2023/12/03 15:29:50;;;;;;;46.97;23.23;;;;;;;2.88;100.00;102112.66;10447430;28;20457;-61
2023/12/03 15:35:12;;;;;;;45.47;23.00;;;;;;;2.87;100.00;102120.31;10431452;28;20048;-61
2023/12/03 15:40:34;;;;;;;43.88;24.00;;;;;;;2.82;100.00;102111.69;10434839;28;20049;-61
2023/12/03 15:45:55;;;;;;;48.38;23.67;;;;;;;2.74;100.00;102118.31;10430417;28;20623;-61
2023/12/03 15:51:17;;;;;;;47.72;24.02;;;;;;;2.62;100.00;102106.09;10431019;28;20051;-61
2023/12/03 15:56:39;;;;;;;51.78;26.73;;;;;;;2.53;100.00;102100.78;10428025;28;20049;-60
2023/12/03 16:02:00;;;;;;;53.38;26.00;;;;;;;2.45;100.00;102101.44;10434643;28;20056;-62
2023/12/03 16:07:25;;;;;;;58.60;27.33;;;;;;;2.40;100.00;102101.31;10423997;28;20049;-61
2023/12/03 16:12:47;;;;;;;56.28;28.60;;;;;;;2.38;100.00;102102.97;10425025;28;20463;-61
2023/12/03 16:18:16;;;;;;;57.47;28.15;;;;;;;2.31;100.00;102096.00;10593438;27;20643;-61
2023/12/03 16:23:37;;;;;;;53.33;27.35;;;;;;;2.32;100.00;102105.41;10558658;28;20043;-61
2023/12/03 16:28:59;;;;;;;56.28;26.85;;;;;;;2.27;100.00;102099.31;10550026;27;20412;-61
2023/12/03 16:34:26;;;;;;;60.10;28.52;;;;;;;2.20;100.00;102084.69;10554037;28;20044;-62
2023/12/03 16:39:48;;;;;;;60.78;29.33;;;;;;;2.19;100.00;102085.50;10547722;28;20054;-61
2023/12/03 16:45:10;;;;;;;61.05;29.60;;;;;;;2.21;100.00;102077.88;10552425;28;20395;-60
2023/12/03 16:50:32;;;;;;;57.55;29.77;;;;;;;2.18;100.00;102077.81;10545408;28;20051;-61
2023/12/03 16:55:54;;;;;;;58.05;29.88;;;;;;;2.18;100.00;102070.16;10548821;28;20044;-61
2023/12/03 17:01:16;;;;;;;57.55;29.75;;;;;;;2.10;100.00;102064.00;10556085;28;20044;-60
2023/12/03 17:06:39;;;;;;;60.10;29.98;;;;;;;2.11;100.00;102065.75;10547181;28;20480;-60
2023/12/03 17:12:00;;;;;;;59.95;31.08;;;;;;;2.05;100.00;102058.81;10548463;28;20190;-61
2023/12/03 17:17:22;;;;;;;66.80;31.33;;;;;;;2.05;100.00;102061.34;10562233;27;20047;-61
2023/12/03 17:22:48;;;;;;;63.40;31.13;;;;;;;2.05;100.00;102071.56;10551844;28;20055;-61
2023/12/03 17:28:09;;;;;;;67.25;30.83;;;;;;;2.03;100.00;102063.84;10523890;28;20136;-61
2023/12/03 17:33:31;;;;;;;64.85;32.05;;;;;;;2.01;100.00;102062.94;10528923;28;20142;-61
2023/12/03 17:38:53;;;;;;;67.03;31.52;;;;;;;1.98;100.00;102067.09;10516618;28;20125;-60
2023/12/03 17:44:15;;;;;;;76.35;32.88;;;;;;;1.95;100.00;102067.03;10513112;28;20532;-61
2023/12/03 17:49:40;;;;;;;62.75;30.52;;;;;;;1.91;100.00;102052.47;10513704;28;20103;-61
2023/12/03 17:55:03;;;;;;;74.45;32.50;;;;;;;1.91;100.00;102045.69;10531913;28;20574;-61
2023/12/03 18:00:26;;;;;;;65.88;31.15;;;;;;;1.91;100.00;102053.34;10524443;28;20060;-61
2023/12/03 18:05:53;;;;;;;61.05;31.15;;;;;;;1.90;100.00;102043.13;10521657;28;20070;-61
2023/12/03 18:11:15;;;;;;;66.25;31.65;;;;;;;1.85;100.00;102042.16;10529744;27;20075;-61
2023/12/03 18:16:37;;;;;;;75.10;33.42;;;;;;;1.83;100.00;102033.59;10529754;27;20044;-61
2023/12/03 18:21:58;;;;;;;64.85;31.08;;;;;;;1.79;100.00;102031.78;10511373;28;20577;-62
2023/12/03 18:27:20;;;;;;;64.75;31.35;;;;;;;1.77;100.00;102028.31;10526236;28;20480;-61
2023/12/03 18:32:42;;;;;;;68.20;33.00;;;;;;;1.77;100.00;102023.22;10525369;28;20043;-62
2023/12/03 18:38:04;;;;;;;71.15;34.00;;;;;;;1.76;100.00;102008.72;10505656;28;20384;-62
2023/12/03 18:43:25;;;;;;;64.00;32.67;;;;;;;1.77;100.00;102013.03;10509762;28;20130;-62
2023/12/03 18:48:47;;;;;;;67.95;32.20;;;;;;;1.75;100.00;102009.56;10513577;28;20048;-61
2023/12/03 18:54:09;;;;;;;64.47;31.88;;;;;;;1.78;100.00;102014.72;10523908;28;20048;-61
2023/12/03 18:59:30;;;;;;;63.30;30.75;;;;;;;1.80;100.00;102013.09;10502712;28;20059;-62
2023/12/03 19:04:53;;;;;;;61.95;30.90;;;;;;;1.84;100.00;101999.59;10517363;28;20443;-62
2023/12/03 19:10:16;;;;;;;60.70;31.15;;;;;;;1.86;100.00;102003.03;10519284;28;20135;-62
2023/12/03 19:15:38;;;;;;;64.40;31.92;;;;;;;1.79;100.00;101984.19;10508620;28;20038;-62
2023/12/03 19:21:00;;;;;;;58.70;29.95;;;;;;;1.84;100.00;101986.81;10507805;28;20063;-62
2023/12/03 19:26:21;;;;;;;63.75;30.55;;;;;;;1.87;100.00;101981.78;10517724;28;20040;-61
2023/12/03 19:31:46;;;;;;;61.53;30.90;;;;;;;1.89;100.00;101983.56;10515269;28;20435;-60
2023/12/03 19:37:08;;;;;;;57.83;29.10;;;;;;;1.90;100.00;101980.16;10516046;28;20118;-61
2023/12/03 19:42:30;;;;;;;58.25;30.17;;;;;;;1.87;100.00;101981.78;10510122;28;20052;-61
2023/12/03 19:47:52;;;;;;;58.25;28.63;;;;;;;1.91;100.00;101970.84;10509150;28;20044;-60
2023/12/03 19:53:14;;;;;;;52.47;27.50;;;;;;;1.95;100.00;101955.63;10507260;28;20067;-60
2023/12/03 19:58:35;;;;;;;57.70;29.77;;;;;;;1.96;100.00;101943.72;10513392;28;20055;-60
2023/12/03 20:03:57;;;;;;;53.45;27.85;;;;;;;1.94;100.00;101947.97;10515098;28;20051;-60
2023/12/03 20:09:19;;;;;;;58.00;28.67;;;;;;;1.88;100.00;101951.22;10508608;28;20471;-60
2023/12/03 20:14:41;;;;;;;55.63;27.50;;;;;;;1.81;100.00;101946.78;10511712;28;20464;-60
2023/12/03 20:20:03;;;;;;;54.75;27.95;;;;;;;1.83;100.00;101952.78;10514326;28;20040;-60
2023/12/03 20:25:25;;;;;;;48.65;27.08;;;;;;;1.78;100.00;101953.50;10511662;28;20052;-59
2023/12/03 20:30:47;;;;;;;52.70;27.63;;;;;;;1.74;100.00;101933.88;10516090;28;20076;-61
2023/12/03 20:36:12;;;;;;;47.90;25.90;;;;;;;1.81;100.00;101945.94;10524399;28;20037;-60
2023/12/03 20:41:34;;;;;;;52.33;25.60;;;;;;;1.76;100.00;101947.50;10518406;28;20048;-60
2023/12/03 20:46:56;;;;;;;48.30;24.75;;;;;;;1.76;100.00;101938.16;10514347;28;20044;-60
2023/12/03 20:52:17;;;;;;;50.90;25.13;;;;;;;1.72;100.00;101927.88;10514583;28;20044;-59
2023/12/03 20:57:39;;;;;;;45.13;24.13;;;;;;;1.68;100.00;101910.78;10514026;28;20407;-61
2023/12/03 21:03:01;;;;;;;51.38;24.55;;;;;;;1.67;100.00;101904.81;10525973;28;20484;-59
2023/12/03 21:08:23;;;;;;;41.67;24.42;;;;;;;1.65;100.00;101896.25;10522666;28;20385;-60
2023/12/03 21:13:45;;;;;;;48.60;24.65;;;;;;;1.63;100.00;101892.81;10539446;27;20701;-60
2023/12/03 21:19:07;;;;;;;45.67;24.88;;;;;;;1.66;100.00;101886.91;10521615;28;20052;-60
2023/12/03 21:24:29;;;;;;;42.13;23.17;;;;;;;1.64;100.00;101873.25;10513015;28;20044;-61
2023/12/03 21:29:50;;;;;;;47.22;23.52;;;;;;;1.61;100.00;101865.56;10536819;27;20385;-60
2023/12/03 21:35:12;;;;;;;45.40;24.00;;;;;;;1.57;100.00;101871.41;10514743;28;20049;-61
2023/12/03 21:40:36;;;;;;;45.63;22.52;;;;;;;1.58;100.00;101865.47;10497887;28;20053;-60
2023/12/03 21:45:58;;;;;;;37.80;21.38;;;;;;;1.55;100.00;101867.97;10511927;28;20058;-60
2023/12/03 21:51:19;;;;;;;36.30;20.55;;;;;;;1.49;100.00;101862.69;10524657;28;20040;-60
2023/12/03 21:56:43;;;;;;;39.30;21.13;;;;;;;1.50;100.00;101861.91;10528936;28;20068;-60
2023/12/03 22:02:05;;;;;;;41.70;21.25;;;;;;;1.45;99.68;101858.34;10531972;27;20044;-60
2023/12/03 22:07:27;;;;;;;39.45;21.00;;;;;;;1.50;100.00;101854.25;10525971;28;20067;-61
2023/12/03 22:12:49;;;;;;;36.17;19.95;;;;;;;1.49;99.78;101860.16;10523440;28;20048;-60
2023/12/03 22:18:11;;;;;;;34.83;19.67;;;;;;;1.44;98.77;101843.91;10533694;28;20036;-60
2023/12/03 22:23:33;;;;;;;35.72;19.25;;;;;;;1.41;99.04;101854.03;10525637;28;20052;-60
2023/12/03 22:28:54;;;;;;;34.20;18.92;;;;;;;1.37;99.07;101847.13;10523095;28;20148;-60
2023/12/03 22:34:16;;;;;;;32.38;18.20;;;;;;;1.35;98.91;101836.03;10516133;28;20044;-60
2023/12/03 22:39:38;;;;;;;33.63;18.55;;;;;;;1.34;98.81;101836.88;10536804;27;20060;-60
2023/12/03 22:44:59;;;;;;;34.67;18.73;;;;;;;1.37;98.63;101831.84;10528977;28;20080;-61
2023/12/03 22:50:23;;;;;;;31.10;17.83;;;;;;;1.34;98.66;101812.22;10524154;28;20058;-60
2023/12/03 22:55:47;;;;;;;35.38;17.90;;;;;;;1.32;97.97;101803.69;10523370;28;20052;-61
2023/12/03 23:01:10;;;;;;;30.65;16.90;;;;;;;1.31;97.39;101806.19;10532584;28;20075;-59
2023/12/03 23:06:31;;;;;;;32.05;17.77;;;;;;;1.31;97.46;101806.19;10519277;28;20140;-60
2023/12/03 23:11:53;;;;;;;33.08;16.88;;;;;;;1.19;95.39;101796.56;10521744;28;20141;-61
2023/12/03 23:17:16;;;;;;;28.35;15.57;;;;;;;1.20;96.49;101785.56;10533549;28;20052;-60
2023/12/03 23:22:38;;;;;;;28.27;15.35;;;;;;;1.22;95.29;101798.34;10511790;28;20065;-60
2023/12/03 23:27:59;;;;;;;28.30;15.77;;;;;;;1.16;94.88;101796.50;10523460;28;20043;-60
2023/12/03 23:33:21;;;;;;;26.70;15.10;;;;;;;1.15;93.58;101788.84;10525991;27;20044;-61
2023/12/03 23:38:43;;;;;;;26.70;14.38;;;;;;;1.14;94.40;101782.00;10516815;28;20043;-61
2023/12/03 23:44:04;;;;;;;30.17;15.55;;;;;;;1.14;95.20;101774.34;10510440;28;20055;-59
2023/12/03 23:49:26;;;;;;;27.65;15.38;;;;;;;1.15;94.20;101765.91;10509026;28;20048;-61
2023/12/03 23:54:48;;;;;;;28.20;15.98;;;;;;;1.13;93.20;101760.78;10520160;28;20036;-60
